sensor_id;sensor_type;location;lat;lon;timestamp;P1;durP1;ratioP1;P2;durP2;ratioP2
77099;SDS011;66602;48.922;2.414;2023-03-21T00:00:43;15.90;;;5.63;;
77099;SDS011;66602;48.922;2.414;2023-03-21T00:03:22;6.45;;;5.38;;
77099;SDS011;66602;48.922;2.414;2023-03-21T00:06:12;7.70;;;5.53;;
77099;SDS011;66602;48.922;2.414;2023-03-21T00:08:39;11.35;;;6.10;;
77099;SDS011;66602;48.922;2.414;2023-03-21T00:11:06;15.35;;;6.30;;
77099;SDS011;66602;48.922;2.414;2023-03-21T00:13:34;6.60;;;5.85;;
77099;SDS011;66602;48.922;2.414;2023-03-21T00:16:05;15.45;;;5.55;;
77099;SDS011;66602;48.922;2.414;2023-03-21T00:18:44;9.60;;;5.80;;
77099;SDS011;66602;48.922;2.414;2023-03-21T00:21:15;16.92;;;6.30;;
77099;SDS011;66602;48.922;2.414;2023-03-21T00:23:42;7.85;;;5.00;;
77099;SDS011;66602;48.922;2.414;2023-03-21T00:26:12;9.05;;;4.70;;
77099;SDS011;66602;48.922;2.414;2023-03-21T00:28:43;10.48;;;4.50;;
77099;SDS011;66602;48.922;2.414;2023-03-21T00:31:10;15.50;;;4.90;;
77099;SDS011;66602;48.922;2.414;2023-03-21T00:33:36;7.47;;;4.35;;
77099;SDS011;66602;48.922;2.414;2023-03-21T00:36:08;8.18;;;3.60;;
77099;SDS011;66602;48.922;2.414;2023-03-21T00:38:42;6.57;;;3.88;;
77099;SDS011;66602;48.922;2.414;2023-03-21T00:41:08;4.90;;;3.88;;
77099;SDS011;66602;48.922;2.414;2023-03-21T00:43:47;5.70;;;3.40;;
77099;SDS011;66602;48.922;2.414;2023-03-21T00:46:16;4.88;;;4.07;;
77099;SDS011;66602;48.922;2.414;2023-03-21T00:48:41;5.68;;;3.28;;
77099;SDS011;66602;48.922;2.414;2023-03-21T00:51:11;7.75;;;3.72;;
77099;SDS011;66602;48.922;2.414;2023-03-21T00:53:50;5.03;;;3.30;;
77099;SDS011;66602;48.922;2.414;2023-03-21T00:56:19;7.00;;;3.60;;
77099;SDS011;66602;48.922;2.414;2023-03-21T00:58:44;7.10;;;3.60;;
77099;SDS011;66602;48.922;2.414;2023-03-21T01:01:10;3.67;;;2.83;;
77099;SDS011;66602;48.922;2.414;2023-03-21T01:03:36;5.75;;;3.20;;
77099;SDS011;66602;48.922;2.414;2023-03-21T01:06:17;5.22;;;3.08;;
77099;SDS011;66602;48.922;2.414;2023-03-21T01:09:33;4.18;;;3.53;;
77099;SDS011;66602;48.922;2.414;2023-03-21T01:12:45;7.30;;;3.78;;
77099;SDS011;66602;48.922;2.414;2023-03-21T01:15:35;9.13;;;3.78;;
77099;SDS011;66602;48.922;2.414;2023-03-21T01:18:09;5.90;;;3.70;;
77099;SDS011;66602;48.922;2.414;2023-03-21T01:20:41;6.28;;;3.97;;
77099;SDS011;66602;48.922;2.414;2023-03-21T01:23:08;4.82;;;3.60;;
77099;SDS011;66602;48.922;2.414;2023-03-21T01:25:35;9.18;;;4.22;;
77099;SDS011;66602;48.922;2.414;2023-03-21T01:28:01;5.93;;;4.57;;
77099;SDS011;66602;48.922;2.414;2023-03-21T01:30:29;10.82;;;3.88;;
77099;SDS011;66602;48.922;2.414;2023-03-21T01:32:55;7.00;;;3.80;;
77099;SDS011;66602;48.922;2.414;2023-03-21T01:35:30;4.80;;;3.70;;
77099;SDS011;66602;48.922;2.414;2023-03-21T01:37:59;5.22;;;3.58;;
77099;SDS011;66602;48.922;2.414;2023-03-21T01:40:25;6.53;;;4.20;;
77099;SDS011;66602;48.922;2.414;2023-03-21T01:42:55;8.32;;;4.20;;
77099;SDS011;66602;48.922;2.414;2023-03-21T01:48:26;6.10;;;4.68;;
77099;SDS011;66602;48.922;2.414;2023-03-21T01:51:04;7.68;;;3.92;;
77099;SDS011;66602;48.922;2.414;2023-03-21T01:53:53;6.15;;;3.90;;
77099;SDS011;66602;48.922;2.414;2023-03-21T01:58:51;4.95;;;3.50;;
77099;SDS011;66602;48.922;2.414;2023-03-21T02:01:19;6.97;;;4.07;;
77099;SDS011;66602;48.922;2.414;2023-03-21T02:03:47;9.18;;;5.35;;
77099;SDS011;66602;48.922;2.414;2023-03-21T02:09:34;3.88;;;3.50;;
77099;SDS011;66602;48.922;2.414;2023-03-21T02:12:15;5.47;;;3.80;;
77099;SDS011;66602;48.922;2.414;2023-03-21T02:15:09;5.15;;;3.72;;
77099;SDS011;66602;48.922;2.414;2023-03-21T02:27:45;5.22;;;3.00;;
77099;SDS011;66602;48.922;2.414;2023-03-21T02:30:25;6.90;;;3.00;;
77099;SDS011;66602;48.922;2.414;2023-03-21T02:39:34;3.88;;;3.10;;
77099;SDS011;66602;48.922;2.414;2023-03-21T02:50:54;5.18;;;2.97;;
77099;SDS011;66602;48.922;2.414;2023-03-21T02:53:24;3.40;;;2.55;;
77099;SDS011;66602;48.922;2.414;2023-03-21T02:55:59;2.58;;;2.38;;
77099;SDS011;66602;48.922;2.414;2023-03-21T02:58:52;6.05;;;2.67;;
77099;SDS011;66602;48.922;2.414;2023-03-21T03:01:18;2.70;;;2.50;;
77099;SDS011;66602;48.922;2.414;2023-03-21T03:03:44;2.50;;;2.30;;
77099;SDS011;66602;48.922;2.414;2023-03-21T03:06:17;3.80;;;2.72;;
77099;SDS011;66602;48.922;2.414;2023-03-21T03:09:14;2.40;;;2.28;;
77099;SDS011;66602;48.922;2.414;2023-03-21T03:11:54;2.88;;;2.30;;
77099;SDS011;66602;48.922;2.414;2023-03-21T03:14:38;4.93;;;2.88;;
77099;SDS011;66602;48.922;2.414;2023-03-21T03:23:27;2.65;;;2.30;;
77099;SDS011;66602;48.922;2.414;2023-03-21T03:26:35;2.58;;;2.38;;
77099;SDS011;66602;48.922;2.414;2023-03-21T03:36:14;2.33;;;2.20;;
77099;SDS011;66602;48.922;2.414;2023-03-21T03:39:48;5.40;;;2.70;;
77099;SDS011;66602;48.922;2.414;2023-03-21T03:53:54;2.92;;;2.17;;
77099;SDS011;66602;48.922;2.414;2023-03-21T03:57:02;3.47;;;2.47;;
77099;SDS011;66602;48.922;2.414;2023-03-21T04:00:32;4.30;;;2.97;;
77099;SDS011;66602;48.922;2.414;2023-03-21T04:03:23;3.17;;;2.88;;
77099;SDS011;66602;48.922;2.414;2023-03-21T04:06:31;2.97;;;2.42;;
77099;SDS011;66602;48.922;2.414;2023-03-21T04:13:20;5.03;;;2.58;;
77099;SDS011;66602;48.922;2.414;2023-03-21T04:15:48;6.20;;;2.50;;
77099;SDS011;66602;48.922;2.414;2023-03-21T04:18:15;10.25;;;2.90;;
77099;SDS011;66602;48.922;2.414;2023-03-21T04:20:42;2.45;;;2.25;;
77099;SDS011;66602;48.922;2.414;2023-03-21T04:23:12;5.85;;;2.60;;
77099;SDS011;66602;48.922;2.414;2023-03-21T04:25:43;3.33;;;2.55;;
77099;SDS011;66602;48.922;2.414;2023-03-21T04:28:10;2.67;;;2.30;;
77099;SDS011;66602;48.922;2.414;2023-03-21T04:30:41;2.92;;;2.42;;
77099;SDS011;66602;48.922;2.414;2023-03-21T04:33:17;2.63;;;1.85;;
77099;SDS011;66602;48.922;2.414;2023-03-21T04:35:44;3.20;;;2.35;;
77099;SDS011;66602;48.922;2.414;2023-03-21T04:38:11;4.53;;;2.13;;
77099;SDS011;66602;48.922;2.414;2023-03-21T04:40:43;2.33;;;1.98;;
77099;SDS011;66602;48.922;2.414;2023-03-21T04:43:12;2.55;;;1.80;;
77099;SDS011;66602;48.922;2.414;2023-03-21T04:45:38;3.55;;;2.20;;
77099;SDS011;66602;48.922;2.414;2023-03-21T04:48:13;2.40;;;2.13;;
77099;SDS011;66602;48.922;2.414;2023-03-21T04:50:43;3.05;;;1.65;;
77099;SDS011;66602;48.922;2.414;2023-03-21T04:53:13;7.88;;;1.85;;
77099;SDS011;66602;48.922;2.414;2023-03-21T04:55:40;2.60;;;2.05;;
77099;SDS011;66602;48.922;2.414;2023-03-21T04:58:06;2.33;;;2.03;;
77099;SDS011;66602;48.922;2.414;2023-03-21T05:00:33;3.33;;;2.25;;
77099;SDS011;66602;48.922;2.414;2023-03-21T05:03:05;6.03;;;2.13;;
77099;SDS011;66602;48.922;2.414;2023-03-21T05:05:37;2.22;;;2.03;;
77099;SDS011;66602;48.922;2.414;2023-03-21T05:08:04;3.72;;;2.20;;
77099;SDS011;66602;48.922;2.414;2023-03-21T05:10:30;5.47;;;2.35;;
77099;SDS011;66602;48.922;2.414;2023-03-21T05:12:56;2.35;;;2.25;;
77099;SDS011;66602;48.922;2.414;2023-03-21T05:15:22;3.92;;;2.35;;
77099;SDS011;66602;48.922;2.414;2023-03-21T05:17:47;4.43;;;2.17;;
77099;SDS011;66602;48.922;2.414;2023-03-21T05:20:13;2.72;;;2.00;;
77099;SDS011;66602;48.922;2.414;2023-03-21T05:22:40;4.40;;;2.38;;
77099;SDS011;66602;48.922;2.414;2023-03-21T05:25:08;5.60;;;2.15;;
77099;SDS011;66602;48.922;2.414;2023-03-21T05:27:35;3.58;;;2.20;;
77099;SDS011;66602;48.922;2.414;2023-03-21T05:30:09;3.35;;;2.03;;
77099;SDS011;66602;48.922;2.414;2023-03-21T05:32:36;2.75;;;2.33;;
77099;SDS011;66602;48.922;2.414;2023-03-21T05:35:02;2.05;;;1.95;;
77099;SDS011;66602;48.922;2.414;2023-03-21T05:37:36;3.45;;;2.45;;
77099;SDS011;66602;48.922;2.414;2023-03-21T05:40:10;5.20;;;2.30;;
77099;SDS011;66602;48.922;2.414;2023-03-21T05:42:37;4.72;;;2.33;;
77099;SDS011;66602;48.922;2.414;2023-03-21T05:45:22;8.50;;;3.13;;
77099;SDS011;66602;48.922;2.414;2023-03-21T05:48:00;4.53;;;2.88;;
77099;SDS011;66602;48.922;2.414;2023-03-21T05:50:28;4.85;;;2.35;;
77099;SDS011;66602;48.922;2.414;2023-03-21T05:52:56;3.30;;;2.40;;
77099;SDS011;66602;48.922;2.414;2023-03-21T05:55:21;3.92;;;3.10;;
77099;SDS011;66602;48.922;2.414;2023-03-21T05:57:50;8.65;;;2.78;;
77099;SDS011;66602;48.922;2.414;2023-03-21T06:00:18;5.20;;;2.80;;
77099;SDS011;66602;48.922;2.414;2023-03-21T06:02:46;3.08;;;2.78;;
77099;SDS011;66602;48.922;2.414;2023-03-21T06:05:19;5.10;;;2.80;;
77099;SDS011;66602;48.922;2.414;2023-03-21T06:07:44;3.30;;;3.00;;
77099;SDS011;66602;48.922;2.414;2023-03-21T06:10:13;5.35;;;2.90;;
77099;SDS011;66602;48.922;2.414;2023-03-21T06:12:42;2.53;;;2.33;;
77099;SDS011;66602;48.922;2.414;2023-03-21T06:15:09;3.70;;;3.13;;
77099;SDS011;66602;48.922;2.414;2023-03-21T06:17:38;2.85;;;2.55;;
77099;SDS011;66602;48.922;2.414;2023-03-21T06:20:21;4.65;;;3.05;;
77099;SDS011;66602;48.922;2.414;2023-03-21T06:22:48;4.90;;;3.10;;
77099;SDS011;66602;48.922;2.414;2023-03-21T06:25:14;3.15;;;2.83;;
77099;SDS011;66602;48.922;2.414;2023-03-21T06:27:45;5.38;;;3.00;;
77099;SDS011;66602;48.922;2.414;2023-03-21T06:30:34;4.35;;;3.78;;
77099;SDS011;66602;48.922;2.414;2023-03-21T06:33:11;8.63;;;4.35;;
77099;SDS011;66602;48.922;2.414;2023-03-21T06:35:37;9.63;;;3.70;;
77099;SDS011;66602;48.922;2.414;2023-03-21T06:38:35;5.20;;;4.40;;
77099;SDS011;66602;48.922;2.414;2023-03-21T06:42:06;4.22;;;3.83;;
77099;SDS011;66602;48.922;2.414;2023-03-21T06:44:46;5.88;;;3.60;;
77099;SDS011;66602;48.922;2.414;2023-03-21T06:47:12;4.90;;;3.90;;
77099;SDS011;66602;48.922;2.414;2023-03-21T06:49:39;4.63;;;3.67;;
77099;SDS011;66602;48.922;2.414;2023-03-21T06:52:31;3.95;;;3.60;;
77099;SDS011;66602;48.922;2.414;2023-03-21T06:55:33;3.83;;;3.53;;
77099;SDS011;66602;48.922;2.414;2023-03-21T06:58:34;4.10;;;3.70;;
77099;SDS011;66602;48.922;2.414;2023-03-21T07:01:42;7.70;;;3.50;;
77099;SDS011;66602;48.922;2.414;2023-03-21T07:04:10;5.05;;;3.30;;
77099;SDS011;66602;48.922;2.414;2023-03-21T07:06:39;4.22;;;3.30;;
77099;SDS011;66602;48.922;2.414;2023-03-21T07:09:04;4.95;;;3.78;;
77099;SDS011;66602;48.922;2.414;2023-03-21T07:11:32;4.97;;;3.80;;
77099;SDS011;66602;48.922;2.414;2023-03-21T07:13:59;5.63;;;3.20;;
77099;SDS011;66602;48.922;2.414;2023-03-21T07:16:25;4.38;;;3.85;;
77099;SDS011;66602;48.922;2.414;2023-03-21T07:18:51;7.20;;;3.85;;
77099;SDS011;66602;48.922;2.414;2023-03-21T07:21:20;5.70;;;3.50;;
77099;SDS011;66602;48.922;2.414;2023-03-21T07:23:47;3.63;;;3.42;;
77099;SDS011;66602;48.922;2.414;2023-03-21T07:26:14;3.38;;;3.08;;
77099;SDS011;66602;48.922;2.414;2023-03-21T07:28:42;3.78;;;3.47;;
77099;SDS011;66602;48.922;2.414;2023-03-21T07:31:11;5.40;;;3.75;;
77099;SDS011;66602;48.922;2.414;2023-03-21T07:33:38;5.28;;;3.85;;
77099;SDS011;66602;48.922;2.414;2023-03-21T07:36:07;4.97;;;4.00;;
77099;SDS011;66602;48.922;2.414;2023-03-21T07:38:35;7.28;;;3.53;;
77099;SDS011;66602;48.922;2.414;2023-03-21T07:51:22;6.47;;;4.05;;
77099;SDS011;66602;48.922;2.414;2023-03-21T07:57:51;4.43;;;4.03;;
77099;SDS011;66602;48.922;2.414;2023-03-21T08:01:31;4.45;;;3.88;;
77099;SDS011;66602;48.922;2.414;2023-03-21T08:07:57;4.07;;;3.65;;
77099;SDS011;66602;48.922;2.414;2023-03-21T08:10:51;4.32;;;3.92;;
77099;SDS011;66602;48.922;2.414;2023-03-21T08:13:58;5.40;;;4.55;;
77099;SDS011;66602;48.922;2.414;2023-03-21T08:16:25;12.05;;;3.90;;
77099;SDS011;66602;48.922;2.414;2023-03-21T08:18:53;4.57;;;3.38;;
77099;SDS011;66602;48.922;2.414;2023-03-21T08:21:18;4.65;;;4.15;;
77099;SDS011;66602;48.922;2.414;2023-03-21T08:23:44;8.55;;;4.28;;
77099;SDS011;66602;48.922;2.414;2023-03-21T08:26:10;3.97;;;3.63;;
77099;SDS011;66602;48.922;2.414;2023-03-21T08:28:36;4.72;;;4.13;;
77099;SDS011;66602;48.922;2.414;2023-03-21T08:31:07;4.00;;;3.60;;
77099;SDS011;66602;48.922;2.414;2023-03-21T08:33:34;9.57;;;6.03;;
77099;SDS011;66602;48.922;2.414;2023-03-21T08:36:00;4.50;;;4.20;;
77099;SDS011;66602;48.922;2.414;2023-03-21T08:38:26;6.75;;;4.75;;
77099;SDS011;66602;48.922;2.414;2023-03-21T08:40:57;5.07;;;4.10;;
77099;SDS011;66602;48.922;2.414;2023-03-21T08:43:24;6.45;;;3.78;;
77099;SDS011;66602;48.922;2.414;2023-03-21T08:45:53;4.15;;;3.85;;
77099;SDS011;66602;48.922;2.414;2023-03-21T08:48:20;4.15;;;3.75;;
77099;SDS011;66602;48.922;2.414;2023-03-21T08:50:45;7.65;;;3.67;;
77099;SDS011;66602;48.922;2.414;2023-03-21T08:53:11;6.30;;;3.80;;
77099;SDS011;66602;48.922;2.414;2023-03-21T08:55:37;6.07;;;4.18;;
77099;SDS011;66602;48.922;2.414;2023-03-21T08:58:12;9.38;;;3.78;;
77099;SDS011;66602;48.922;2.414;2023-03-21T09:00:38;4.75;;;3.97;;
77099;SDS011;66602;48.922;2.414;2023-03-21T09:03:05;4.68;;;4.28;;
77099;SDS011;66602;48.922;2.414;2023-03-21T09:05:56;5.82;;;3.53;;
77099;SDS011;66602;48.922;2.414;2023-03-21T09:08:23;7.63;;;3.55;;
77099;SDS011;66602;48.922;2.414;2023-03-21T09:10:52;5.18;;;3.60;;
77099;SDS011;66602;48.922;2.414;2023-03-21T09:13:19;10.10;;;4.90;;
77099;SDS011;66602;48.922;2.414;2023-03-21T09:15:48;5.60;;;3.47;;
77099;SDS011;66602;48.922;2.414;2023-03-21T09:18:14;16.45;;;3.00;;
77099;SDS011;66602;48.922;2.414;2023-03-21T09:20:43;8.80;;;4.15;;
77099;SDS011;66602;48.922;2.414;2023-03-21T09:23:11;6.95;;;3.65;;
77099;SDS011;66602;48.922;2.414;2023-03-21T09:25:37;11.00;;;3.55;;
77099;SDS011;66602;48.922;2.414;2023-03-21T09:28:04;10.75;;;3.60;;
77099;SDS011;66602;48.922;2.414;2023-03-21T09:30:30;4.35;;;3.42;;
77099;SDS011;66602;48.922;2.414;2023-03-21T09:32:58;3.72;;;3.22;;
77099;SDS011;66602;48.922;2.414;2023-03-21T09:35:26;9.50;;;3.33;;
77099;SDS011;66602;48.922;2.414;2023-03-21T09:37:53;6.00;;;2.92;;
77099;SDS011;66602;48.922;2.414;2023-03-21T09:43:09;10.00;;;3.17;;
77099;SDS011;66602;48.922;2.414;2023-03-21T09:49:43;5.07;;;2.88;;
77099;SDS011;66602;48.922;2.414;2023-03-21T09:55:26;4.23;;;3.10;;
77099;SDS011;66602;48.922;2.414;2023-03-21T09:58:48;3.20;;;2.90;;
77099;SDS011;66602;48.922;2.414;2023-03-21T10:05:38;5.88;;;3.55;;
77099;SDS011;66602;48.922;2.414;2023-03-21T10:08:41;4.70;;;3.30;;
77099;SDS011;66602;48.922;2.414;2023-03-21T10:14:37;4.47;;;3.80;;
77099;SDS011;66602;48.922;2.414;2023-03-21T10:18:12;4.15;;;2.95;;
77099;SDS011;66602;48.922;2.414;2023-03-21T10:21:25;6.88;;;2.88;;
77099;SDS011;66602;48.922;2.414;2023-03-21T10:25:06;8.07;;;4.25;;
77099;SDS011;66602;48.922;2.414;2023-03-21T10:33:55;4.53;;;3.20;;
77099;SDS011;66602;48.922;2.414;2023-03-21T10:38:52;8.88;;;3.17;;
77099;SDS011;66602;48.922;2.414;2023-03-21T10:41:20;9.60;;;3.15;;
77099;SDS011;66602;48.922;2.414;2023-03-21T10:43:46;3.90;;;3.13;;
77099;SDS011;66602;48.922;2.414;2023-03-21T10:46:29;9.05;;;2.58;;
77099;SDS011;66602;48.922;2.414;2023-03-21T10:48:55;6.63;;;3.00;;
77099;SDS011;66602;48.922;2.414;2023-03-21T10:51:24;3.17;;;2.90;;
77099;SDS011;66602;48.922;2.414;2023-03-21T10:54:07;5.72;;;2.92;;
77099;SDS011;66602;48.922;2.414;2023-03-21T10:56:39;5.72;;;2.40;;
77099;SDS011;66602;48.922;2.414;2023-03-21T10:59:11;3.75;;;2.97;;
77099;SDS011;66602;48.922;2.414;2023-03-21T11:04:20;6.07;;;2.42;;
77099;SDS011;66602;48.922;2.414;2023-03-21T11:06:51;2.83;;;2.60;;
77099;SDS011;66602;48.922;2.414;2023-03-21T11:09:24;5.87;;;2.70;;
77099;SDS011;66602;48.922;2.414;2023-03-21T11:12:03;4.35;;;2.78;;
77099;SDS011;66602;48.922;2.414;2023-03-21T11:14:37;4.05;;;2.25;;
77099;SDS011;66602;48.922;2.414;2023-03-21T11:19:45;4.53;;;2.17;;
77099;SDS011;66602;48.922;2.414;2023-03-21T11:22:14;3.38;;;2.50;;
77099;SDS011;66602;48.922;2.414;2023-03-21T11:24:46;8.43;;;3.40;;
77099;SDS011;66602;48.922;2.414;2023-03-21T11:27:29;4.35;;;2.40;;
77099;SDS011;66602;48.922;2.414;2023-03-21T11:29:56;5.03;;;3.08;;
77099;SDS011;66602;48.922;2.414;2023-03-21T11:32:31;3.83;;;2.90;;
77099;SDS011;66602;48.922;2.414;2023-03-21T11:35:05;3.72;;;2.50;;
77099;SDS011;66602;48.922;2.414;2023-03-21T11:37:43;3.65;;;3.35;;
77099;SDS011;66602;48.922;2.414;2023-03-21T11:40:19;3.13;;;2.80;;
77099;SDS011;66602;48.922;2.414;2023-03-21T11:42:54;2.95;;;2.63;;
77099;SDS011;66602;48.922;2.414;2023-03-21T11:45:29;2.50;;;2.40;;
77099;SDS011;66602;48.922;2.414;2023-03-21T11:47:57;2.58;;;2.38;;
77099;SDS011;66602;48.922;2.414;2023-03-21T11:50:43;5.93;;;3.20;;
77099;SDS011;66602;48.922;2.414;2023-03-21T11:56:44;4.70;;;3.28;;
77099;SDS011;66602;48.922;2.414;2023-03-21T11:59:44;3.05;;;2.80;;
77099;SDS011;66602;48.922;2.414;2023-03-21T12:06:48;4.68;;;4.28;;
77099;SDS011;66602;48.922;2.414;2023-03-21T12:09:33;8.50;;;3.22;;
77099;SDS011;66602;48.922;2.414;2023-03-21T12:19:38;4.47;;;2.67;;
77099;SDS011;66602;48.922;2.414;2023-03-21T12:31:23;3.50;;;3.13;;
77099;SDS011;66602;48.922;2.414;2023-03-21T12:34:13;3.90;;;2.80;;
77099;SDS011;66602;48.922;2.414;2023-03-21T12:37:15;5.95;;;4.20;;
77099;SDS011;66602;48.922;2.414;2023-03-21T12:39:43;5.68;;;3.60;;
77099;SDS011;66602;48.922;2.414;2023-03-21T12:48:13;3.83;;;2.92;;
77099;SDS011;66602;48.922;2.414;2023-03-21T12:51:13;7.03;;;2.70;;
77099;SDS011;66602;48.922;2.414;2023-03-21T12:53:48;4.38;;;2.50;;
77099;SDS011;66602;48.922;2.414;2023-03-21T12:56:21;3.17;;;2.83;;
77099;SDS011;66602;48.922;2.414;2023-03-21T12:59:05;5.22;;;2.60;;
77099;SDS011;66602;48.922;2.414;2023-03-21T13:07:56;3.35;;;3.00;;
77099;SDS011;66602;48.922;2.414;2023-03-21T13:10:48;4.00;;;2.63;;
77099;SDS011;66602;48.922;2.414;2023-03-21T13:13:25;4.90;;;3.42;;
77099;SDS011;66602;48.922;2.414;2023-03-21T13:16:19;4.75;;;3.25;;
77099;SDS011;66602;48.922;2.414;2023-03-21T13:22:14;2.88;;;2.10;;
77099;SDS011;66602;48.922;2.414;2023-03-21T13:24:49;6.38;;;3.17;;
77099;SDS011;66602;48.922;2.414;2023-03-21T13:27:46;5.57;;;3.67;;
77099;SDS011;66602;48.922;2.414;2023-03-21T13:30:23;4.75;;;3.22;;
77099;SDS011;66602;48.922;2.414;2023-03-21T13:33:34;2.20;;;2.05;;
77099;SDS011;66602;48.922;2.414;2023-03-21T13:36:29;2.30;;;2.13;;
77099;SDS011;66602;48.922;2.414;2023-03-21T13:39:05;2.90;;;2.40;;
77099;SDS011;66602;48.922;2.414;2023-03-21T13:42:21;1.98;;;1.88;;
77099;SDS011;66602;48.922;2.414;2023-03-21T13:45:11;5.90;;;1.83;;
77099;SDS011;66602;48.922;2.414;2023-03-21T13:51:43;3.42;;;1.95;;
77099;SDS011;66602;48.922;2.414;2023-03-21T13:57:40;1.92;;;1.83;;
77099;SDS011;66602;48.922;2.414;2023-03-21T14:00:14;2.13;;;1.88;;
77099;SDS011;66602;48.922;2.414;2023-03-21T14:03:14;5.30;;;2.30;;
77099;SDS011;66602;48.922;2.414;2023-03-21T14:06:37;2.95;;;1.80;;
77099;SDS011;66602;48.922;2.414;2023-03-21T14:10:00;3.00;;;1.90;;
77099;SDS011;66602;48.922;2.414;2023-03-21T14:13:00;5.22;;;1.90;;
77099;SDS011;66602;48.922;2.414;2023-03-21T14:15:51;2.53;;;1.90;;
77099;SDS011;66602;48.922;2.414;2023-03-21T14:18:43;1.83;;;1.70;;
77099;SDS011;66602;48.922;2.414;2023-03-21T14:21:30;5.22;;;2.00;;
77099;SDS011;66602;48.922;2.414;2023-03-21T14:24:45;4.40;;;2.10;;
77099;SDS011;66602;48.922;2.414;2023-03-21T14:27:53;2.08;;;1.80;;
77099;SDS011;66602;48.922;2.414;2023-03-21T14:30:49;1.95;;;1.83;;
77099;SDS011;66602;48.922;2.414;2023-03-21T14:33:55;3.75;;;1.65;;
77099;SDS011;66602;48.922;2.414;2023-03-21T14:36:33;6.90;;;2.33;;
77099;SDS011;66602;48.922;2.414;2023-03-21T14:39:22;1.90;;;1.70;;
77099;SDS011;66602;48.922;2.414;2023-03-21T14:41:54;4.82;;;1.98;;
77099;SDS011;66602;48.922;2.414;2023-03-21T14:44:38;3.42;;;1.65;;
77099;SDS011;66602;48.922;2.414;2023-03-21T14:47:17;4.97;;;2.08;;
77099;SDS011;66602;48.922;2.414;2023-03-21T14:50:08;4.78;;;1.80;;
77099;SDS011;66602;48.922;2.414;2023-03-21T14:52:48;4.25;;;1.83;;
77099;SDS011;66602;48.922;2.414;2023-03-21T14:55:25;2.70;;;1.70;;
77099;SDS011;66602;48.922;2.414;2023-03-21T14:58:10;1.90;;;1.88;;
77099;SDS011;66602;48.922;2.414;2023-03-21T15:00:41;1.88;;;1.77;;
77099;SDS011;66602;48.922;2.414;2023-03-21T15:03:35;5.97;;;1.80;;
77099;SDS011;66602;48.922;2.414;2023-03-21T15:06:20;2.00;;;1.90;;
77099;SDS011;66602;48.922;2.414;2023-03-21T15:09:31;12.15;;;1.83;;
77099;SDS011;66602;48.922;2.414;2023-03-21T15:12:09;5.13;;;1.90;;
77099;SDS011;66602;48.922;2.414;2023-03-21T15:24:20;2.22;;;1.95;;
77099;SDS011;66602;48.922;2.414;2023-03-21T15:27:22;2.78;;;1.33;;
77099;SDS011;66602;48.922;2.414;2023-03-21T15:33:40;2.30;;;2.10;;
77099;SDS011;66602;48.922;2.414;2023-03-21T15:36:16;2.75;;;1.50;;
77099;SDS011;66602;48.922;2.414;2023-03-21T15:39:15;1.05;;;1.05;;
77099;SDS011;66602;48.922;2.414;2023-03-21T15:42:21;4.68;;;1.55;;
77099;SDS011;66602;48.922;2.414;2023-03-21T15:45:01;1.25;;;1.25;;
77099;SDS011;66602;48.922;2.414;2023-03-21T15:51:31;2.75;;;1.45;;
77099;SDS011;66602;48.922;2.414;2023-03-21T15:55:01;2.38;;;1.83;;
77099;SDS011;66602;48.922;2.414;2023-03-21T15:58:33;1.33;;;1.30;;
77099;SDS011;66602;48.922;2.414;2023-03-21T16:08:20;2.33;;;1.67;;
77099;SDS011;66602;48.922;2.414;2023-03-21T16:10:53;1.43;;;1.33;;
77099;SDS011;66602;48.922;2.414;2023-03-21T16:13:18;1.33;;;1.23;;
77099;SDS011;66602;48.922;2.414;2023-03-21T16:15:48;2.15;;;1.52;;
77099;SDS011;66602;48.922;2.414;2023-03-21T16:18:14;5.45;;;1.20;;
77099;SDS011;66602;48.922;2.414;2023-03-21T16:20:45;3.33;;;1.10;;
77099;SDS011;66602;48.922;2.414;2023-03-21T16:23:14;2.25;;;1.25;;
77099;SDS011;66602;48.922;2.414;2023-03-21T16:25:44;1.58;;;1.33;;
77099;SDS011;66602;48.922;2.414;2023-03-21T16:28:13;2.17;;;1.63;;
77099;SDS011;66602;48.922;2.414;2023-03-21T16:30:41;1.90;;;1.80;;
77099;SDS011;66602;48.922;2.414;2023-03-21T16:33:10;4.10;;;1.88;;
77099;SDS011;66602;48.922;2.414;2023-03-21T16:35:37;1.77;;;1.67;;
77099;SDS011;66602;48.922;2.414;2023-03-21T16:38:03;1.40;;;1.30;;
77099;SDS011;66602;48.922;2.414;2023-03-21T16:40:33;3.13;;;2.00;;
77099;SDS011;66602;48.922;2.414;2023-03-21T16:43:01;1.40;;;1.40;;
77099;SDS011;66602;48.922;2.414;2023-03-21T16:45:27;1.63;;;1.52;;
77099;SDS011;66602;48.922;2.414;2023-03-21T16:54:47;1.65;;;1.55;;
77099;SDS011;66602;48.922;2.414;2023-03-21T16:57:23;2.67;;;2.00;;
77099;SDS011;66602;48.922;2.414;2023-03-21T16:59:53;2.47;;;1.65;;
77099;SDS011;66602;48.922;2.414;2023-03-21T17:02:20;1.60;;;1.50;;
77099;SDS011;66602;48.922;2.414;2023-03-21T17:04:49;3.65;;;2.00;;
77099;SDS011;66602;48.922;2.414;2023-03-21T17:07:15;4.07;;;2.10;;
77099;SDS011;66602;48.922;2.414;2023-03-21T17:09:41;4.32;;;2.40;;
77099;SDS011;66602;48.922;2.414;2023-03-21T17:12:08;3.38;;;1.92;;
77099;SDS011;66602;48.922;2.414;2023-03-21T17:14:37;1.95;;;1.85;;
77099;SDS011;66602;48.922;2.414;2023-03-21T17:17:05;5.20;;;1.80;;
77099;SDS011;66602;48.922;2.414;2023-03-21T17:19:37;2.90;;;2.05;;
77099;SDS011;66602;48.922;2.414;2023-03-21T17:22:03;2.13;;;2.03;;
77099;SDS011;66602;48.922;2.414;2023-03-21T17:24:32;3.03;;;1.60;;
77099;SDS011;66602;48.922;2.414;2023-03-21T17:26:59;3.50;;;2.75;;
77099;SDS011;66602;48.922;2.414;2023-03-21T17:29:26;2.90;;;2.63;;
77099;SDS011;66602;48.922;2.414;2023-03-21T18:39:08;6.25;;;4.07;;
77099;SDS011;66602;48.922;2.414;2023-03-21T18:41:37;3.42;;;3.22;;
77099;SDS011;66602;48.922;2.414;2023-03-21T18:44:03;4.95;;;4.25;;
77099;SDS011;66602;48.922;2.414;2023-03-21T18:46:37;4.28;;;3.90;;
77099;SDS011;66602;48.922;2.414;2023-03-21T18:49:46;4.53;;;4.13;;
77099;SDS011;66602;48.922;2.414;2023-03-21T18:53:04;4.40;;;4.05;;
77099;SDS011;66602;48.922;2.414;2023-03-21T18:56:38;14.93;;;4.05;;
77099;SDS011;66602;48.922;2.414;2023-03-21T18:59:04;4.65;;;4.28;;
77099;SDS011;66602;48.922;2.414;2023-03-21T19:05:17;4.18;;;3.90;;
77099;SDS011;66602;48.922;2.414;2023-03-21T19:12:05;4.10;;;3.72;;
77099;SDS011;66602;48.922;2.414;2023-03-21T19:14:33;4.50;;;4.20;;
77099;SDS011;66602;48.922;2.414;2023-03-21T19:16:58;4.38;;;3.97;;
77099;SDS011;66602;48.922;2.414;2023-03-21T19:19:26;4.00;;;3.70;;
77099;SDS011;66602;48.922;2.414;2023-03-21T19:21:58;6.75;;;4.07;;
77099;SDS011;66602;48.922;2.414;2023-03-21T19:24:33;5.75;;;4.30;;
77099;SDS011;66602;48.922;2.414;2023-03-21T19:27:43;8.05;;;3.60;;
77099;SDS011;66602;48.922;2.414;2023-03-21T19:30:35;5.63;;;4.03;;
77099;SDS011;66602;48.922;2.414;2023-03-21T19:33:01;4.60;;;4.20;;
77099;SDS011;66602;48.922;2.414;2023-03-21T19:35:27;5.15;;;4.43;;
77099;SDS011;66602;48.922;2.414;2023-03-21T19:37:52;4.57;;;4.20;;
77099;SDS011;66602;48.922;2.414;2023-03-21T19:40:18;4.20;;;3.90;;
77099;SDS011;66602;48.922;2.414;2023-03-21T19:42:43;4.80;;;4.47;;
77099;SDS011;66602;48.922;2.414;2023-03-21T19:45:09;4.35;;;3.97;;
77099;SDS011;66602;48.922;2.414;2023-03-21T19:47:36;4.78;;;4.38;;
77099;SDS011;66602;48.922;2.414;2023-03-21T19:50:12;5.82;;;4.28;;
77099;SDS011;66602;48.922;2.414;2023-03-21T19:52:38;4.07;;;3.78;;
77099;SDS011;66602;48.922;2.414;2023-03-21T19:55:04;4.25;;;3.83;;
77099;SDS011;66602;48.922;2.414;2023-03-21T19:57:30;4.40;;;4.10;;
77099;SDS011;66602;48.922;2.414;2023-03-21T19:59:55;4.18;;;3.75;;
77099;SDS011;66602;48.922;2.414;2023-03-21T20:02:21;4.65;;;4.25;;
77099;SDS011;66602;48.922;2.414;2023-03-21T20:04:48;4.22;;;3.83;;
77099;SDS011;66602;48.922;2.414;2023-03-21T20:07:14;4.22;;;3.92;;
77099;SDS011;66602;48.922;2.414;2023-03-21T20:09:40;5.50;;;4.22;;
77099;SDS011;66602;48.922;2.414;2023-03-21T20:12:05;4.65;;;4.25;;